Apache Junction, Arizona
Current Conditions -  °F | °C
As of 1:47 PM on Thursday 20 Nov 2014 (Local Time) from KFFZ Reporting Station
Scattered Clouds Scattered Clouds  
Wind Chill: 70°   Ceiling: Unl
Heat Index: 70°   Visibility: 40mi
Dew Point: 19°   Wind: 5mph
Humidity: 15%   Direction: NA
Pressure: 29.99"   Gusts: NA
Location:  33.42°N, 111.54°W
Report Text: KFFZ 202047Z VRB04KT 40SM SCT250 21/M07 A2999
Loading
Personal Weather Stations






























Interactive Weather Map New forecast layout! Learn more

10-Day Weather Forecast

Advertisements
Track Severe Weather on mobile